臺北終端管制區 - 桃園掃描雷達席

METAR RCTP 270930Z 06017KT 9999 FEW020 26/18 Q1012 NOSIG RMK A2991(F)=

站台狀態:Online
最後更新:2020-10-27 17:30:02